KMTN/MTN METAR and TAF weather

Enter ICAO airport designator
Station Type Date Time Source
KMTN METAR 2019/02/16 07:03 UTC NOAA

KMTN 160703Z AUTO 29011G15KT 10SM OVC070 07/M05 A2983 RMK AO2


Station Type Date Time Source
KMTN Decoded METAR 2019/02/16 07:03 UTC NOAA

Baltimore / Martin, MD, United States (KMTN) 39-20N 076-25W
Feb 16, 2019 - 02:03 AM EST / 2019.02.16 0703 UTC
Wind: from the WNW (290 degrees) at 13 MPH (11 KT) gusting to 17 MPH (15 KT):0
Visibility: 10 mile(s):0
Sky conditions: overcast
Temperature: 44 F (7 C)
Dew Point: 23 F (-5 C)
Relative Humidity: 42%
Pressure (altimeter): 29.83 in. Hg (1010 hPa)
ob: KMTN 160703Z AUTO 29011G15KT 10SM OVC070 07/M05 A2983 RMK AO2
cycle: 7

Station Type Date Time Source
KMTN TAF 2019/02/15 18:30 UTC NOAA

TAF KMTN 151728Z 1518/1618 20010G18KT P6SM SCT060 BKN200
FM152300 26007KT P6SM SCT050 OVC200
FM160300 31008KT P6SM SCT050 OVC130


Example: see airport list